Time;durP1;ratioP1;P1;durP2;ratioP2;P2;SDS_P1;SDS_P2;PMS_P1;PMS_P2;Temp;Humidity;BMP_temperature;BMP_pressure;BME280_temperature;BME280_humidity;BME280_pressure;Samples;Min_cycle;Max_cycle;Signal;HPM_P1;HPM_P2
2023/06/18 00:02:04;;;;;;;13.98;9.18;;;;;;;;;;5136670;27;20193;-49
2023/06/18 00:04:31;;;;;;;15.43;9.00;;;;;;;;;;5136450;27;20230;-48
2023/06/18 00:06:59;;;;;;;13.80;8.88;;;;;;;;;;5137040;27;20245;-49
2023/06/18 00:09:26;;;;;;;14.75;9.38;;;;;;;;;;5136589;27;20254;-48
2023/06/18 00:11:53;;;;;;;14.57;9.05;;;;;;;;;;5136747;27;20201;-49
2023/06/18 00:14:20;;;;;;;22.33;9.48;;;;;;;;;;5136472;27;20711;-48
2023/06/18 00:16:49;;;;;;;14.02;9.35;;;;;;;;;;5136453;27;20676;-49
2023/06/18 00:19:16;;;;;;;13.80;9.35;;;;;;;;;;5136297;27;20201;-48
2023/06/18 00:21:43;;;;;;;15.18;9.25;;;;;;;;;;5136585;27;20212;-48
2023/06/18 00:24:10;;;;;;;13.23;9.77;;;;;;;;;;5136503;27;20197;-48
2023/06/18 00:26:38;;;;;;;13.27;9.27;;;;;;;;;;5136103;27;20229;-48
2023/06/18 00:29:05;;;;;;;13.73;9.25;;;;;;;;;;5118068;27;20228;-49
2023/06/18 00:31:34;;;;;;;13.25;10.02;;;;;;;;;;5117929;27;20655;-50
2023/06/18 00:34:06;;;;;;;14.07;9.45;;;;;;;;;;5136361;27;20205;-49
2023/06/18 00:36:38;;;;;;;13.10;9.88;;;;;;;;;;5136363;27;20212;-52
2023/06/18 00:39:06;;;;;;;12.63;9.95;;;;;;;;;;5136031;27;20209;-48
2023/06/18 00:41:34;;;;;;;13.75;10.10;;;;;;;;;;5136065;27;20204;-51
2023/06/18 00:44:02;;;;;;;16.80;11.75;;;;;;;;;;5117580;27;20205;-51
2023/06/18 00:46:30;;;;;;;18.13;10.23;;;;;;;;;;5135645;27;20232;-48
2023/06/18 00:48:58;;;;;;;15.10;9.98;;;;;;;;;;5118314;27;20250;-48
2023/06/18 00:51:28;;;;;;;13.43;9.52;;;;;;;;;;5117757;27;20225;-48
2023/06/18 00:53:58;;;;;;;13.02;9.73;;;;;;;;;;5117272;28;20227;-49
2023/06/18 00:56:29;;;;;;;15.20;10.13;;;;;;;;;;5101183;27;20205;-52
2023/06/18 00:58:57;;;;;;;14.90;10.70;;;;;;;;;;5135891;27;20201;-50
2023/06/18 01:01:25;;;;;;;16.25;10.10;;;;;;;;;;5135871;27;20201;-50
2023/06/18 01:03:56;;;;;;;15.27;10.57;;;;;;;;;;5113819;28;20302;-49
2023/06/18 01:06:26;;;;;;;15.18;10.38;;;;;;;;;;5114422;28;20218;-50
2023/06/18 01:08:54;;;;;;;15.68;10.60;;;;;;;;;;5114780;28;20198;-49
2023/06/18 01:11:21;;;;;;;15.77;10.55;;;;;;;;;;5096802;28;20202;-49
2023/06/18 01:13:50;;;;;;;14.20;10.27;;;;;;;;;;5115020;28;20201;-49
2023/06/18 01:16:24;;;;;;;12.15;9.57;;;;;;;;;;5096975;28;20660;-49
2023/06/18 01:18:52;;;;;;;18.83;9.52;;;;;;;;;;5098256;28;20178;-49
2023/06/18 01:21:21;;;;;;;14.95;9.75;;;;;;;;;;5113749;28;20205;-49
2023/06/18 01:24:11;;;;;;;12.70;9.23;;;;;;;;;;5113387;28;20296;-50
2023/06/18 01:26:41;;;;;;;15.10;9.75;;;;;;;;;;5113220;28;20569;-49
2023/06/18 01:29:10;;;;;;;19.65;10.38;;;;;;;;;;5115014;28;20209;-50
2023/06/18 01:31:37;;;;;;;22.10;10.02;;;;;;;;;;5096701;28;20588;-51
2023/06/18 01:34:06;;;;;;;16.33;9.25;;;;;;;;;;5114387;28;20645;-49
2023/06/18 01:36:47;;;;;;;11.15;8.80;;;;;;;;;;5113018;28;20217;-49
2023/06/18 01:39:20;;;;;;;13.98;9.50;;;;;;;;;;5113258;28;20280;-50
2023/06/18 01:41:48;;;;;;;17.52;10.00;;;;;;;;;;5096298;28;20194;-51
2023/06/18 01:44:19;;;;;;;19.58;10.75;;;;;;;;;;5113080;28;20644;-48
2023/06/18 01:46:49;;;;;;;13.38;10.07;;;;;;;;;;5113000;28;20225;-48
2023/06/18 01:49:18;;;;;;;18.77;10.43;;;;;;;;;;5112776;28;20254;-50
2023/06/18 01:51:45;;;;;;;16.95;9.80;;;;;;;;;;5112861;28;20201;-49
2023/06/18 01:54:12;;;;;;;15.15;10.00;;;;;;;;;;5095819;28;20280;-49
2023/06/18 01:56:40;;;;;;;16.77;9.77;;;;;;;;;;5112724;28;20210;-49
2023/06/18 01:59:07;;;;;;;16.35;11.00;;;;;;;;;;5095914;28;20558;-49
2023/06/18 02:01:34;;;;;;;15.35;10.82;;;;;;;;;;5113119;28;20205;-48
2023/06/18 02:04:02;;;;;;;19.42;10.63;;;;;;;;;;5122841;28;20240;-49
2023/06/18 02:06:30;;;;;;;15.88;10.32;;;;;;;;;;5133785;27;20221;-50
2023/06/18 02:08:57;;;;;;;13.23;9.85;;;;;;;;;;5134380;27;20197;-50
2023/06/18 02:11:25;;;;;;;15.02;9.48;;;;;;;;;;5134704;27;20201;-51
2023/06/18 02:13:52;;;;;;;16.98;11.63;;;;;;;;;;5134142;28;20201;-50
2023/06/18 02:16:20;;;;;;;16.90;10.43;;;;;;;;;;5116122;28;20208;-49
2023/06/18 02:18:47;;;;;;;15.27;10.45;;;;;;;;;;5134072;28;20662;-48
2023/06/18 02:21:14;;;;;;;15.05;10.68;;;;;;;;;;5134402;28;20201;-48
2023/06/18 02:23:41;;;;;;;19.83;11.52;;;;;;;;;;5134385;28;20201;-50
2023/06/18 02:26:09;;;;;;;15.77;11.00;;;;;;;;;;5133888;28;20774;-48
2023/06/18 02:28:36;;;;;;;16.77;11.23;;;;;;;;;;5115772;28;20215;-48
2023/06/18 02:31:05;;;;;;;16.83;11.18;;;;;;;;;;5116127;28;20197;-50
2023/06/18 02:33:32;;;;;;;15.68;10.50;;;;;;;;;;5133958;28;20198;-49
2023/06/18 02:36:00;;;;;;;18.85;12.52;;;;;;;;;;5116119;28;20197;-49
2023/06/18 02:38:28;;;;;;;16.40;10.70;;;;;;;;;;5134001;28;20274;-48
2023/06/18 02:40:55;;;;;;;21.02;11.25;;;;;;;;;;5115900;28;20205;-48
2023/06/18 02:43:24;;;;;;;17.83;10.43;;;;;;;;;;5134166;28;20205;-50
2023/06/18 02:45:52;;;;;;;14.30;10.93;;;;;;;;;;5134046;28;20660;-48
2023/06/18 02:48:19;;;;;;;16.77;12.02;;;;;;;;;;5115966;28;20282;-50
2023/06/18 02:50:47;;;;;;;16.67;11.13;;;;;;;;;;5115773;28;20664;-48
2023/06/18 02:53:14;;;;;;;15.35;10.63;;;;;;;;;;5134044;28;20232;-49
2023/06/18 02:55:42;;;;;;;17.52;11.38;;;;;;;;;;5115712;28;20660;-48
2023/06/18 02:58:17;;;;;;;17.65;10.50;;;;;;;;;;5134003;28;20540;-49
2023/06/18 03:00:45;;;;;;;13.93;10.38;;;;;;;;;;5099096;28;20208;-50
2023/06/18 03:03:14;;;;;;;17.17;10.10;;;;;;;;;;5115517;28;20197;-50
2023/06/18 03:05:46;;;;;;;20.27;10.10;;;;;;;;;;5116023;28;20213;-48
2023/06/18 03:08:13;;;;;;;15.85;10.90;;;;;;;;;;5116260;28;20229;-48
2023/06/18 03:10:43;;;;;;;19.38;11.63;;;;;;;;;;5115638;28;20223;-48
2023/06/18 03:13:10;;;;;;;14.45;10.13;;;;;;;;;;5133854;28;20251;-49
2023/06/18 03:15:45;;;;;;;16.70;10.65;;;;;;;;;;5115807;28;20200;-49
2023/06/18 03:18:13;;;;;;;16.75;10.68;;;;;;;;;;5135350;27;20201;-49
2023/06/18 03:20:42;;;;;;;16.38;11.05;;;;;;;;;;5119550;27;20198;-48
2023/06/18 03:23:09;;;;;;;15.45;10.43;;;;;;;;;;5119707;27;20212;-48
2023/06/18 03:25:41;;;;;;;20.15;10.82;;;;;;;;;;5119457;27;20193;-49
2023/06/18 03:28:14;;;;;;;13.98;9.93;;;;;;;;;;5119219;27;20226;-48
2023/06/18 03:30:42;;;;;;;15.60;9.98;;;;;;;;;;5119130;27;20220;-48
2023/06/18 03:33:10;;;;;;;15.48;10.55;;;;;;;;;;5137224;27;20211;-49
2023/06/18 03:35:40;;;;;;;18.60;10.25;;;;;;;;;;5119011;27;20250;-50
2023/06/18 03:38:07;;;;;;;15.75;10.80;;;;;;;;;;5119162;27;20295;-49
2023/06/18 03:40:35;;;;;;;15.95;9.88;;;;;;;;;;5119267;27;20259;-49
2023/06/18 03:43:02;;;;;;;14.52;10.13;;;;;;;;;;5137094;27;20194;-49
2023/06/18 03:45:30;;;;;;;14.25;10.50;;;;;;;;;;5118689;27;20208;-49
2023/06/18 03:47:57;;;;;;;17.13;11.15;;;;;;;;;;5118902;27;20236;-48
2023/06/18 03:50:27;;;;;;;14.68;10.15;;;;;;;;;;5118788;27;20212;-48
2023/06/18 03:52:54;;;;;;;14.73;10.70;;;;;;;;;;5118835;27;20652;-49
2023/06/18 03:55:22;;;;;;;17.35;10.52;;;;;;;;;;5118904;27;20198;-48
2023/06/18 03:57:49;;;;;;;19.20;10.93;;;;;;;;;;5118695;27;20204;-50
2023/06/18 04:00:17;;;;;;;19.13;10.32;;;;;;;;;;5118797;27;20209;-48
2023/06/18 04:02:45;;;;;;;14.18;9.85;;;;;;;;;;5136994;27;20297;-48
2023/06/18 04:05:18;;;;;;;16.98;10.95;;;;;;;;;;5118611;27;20240;-48
2023/06/18 04:07:45;;;;;;;17.65;11.65;;;;;;;;;;5118634;27;20307;-51
2023/06/18 04:10:12;;;;;;;16.27;10.60;;;;;;;;;;5118309;27;20686;-48
2023/06/18 04:12:39;;;;;;;15.02;10.27;;;;;;;;;;5136478;27;20735;-48
2023/06/18 04:15:07;;;;;;;13.52;9.60;;;;;;;;;;5118498;27;20198;-48
2023/06/18 04:17:41;;;;;;;13.68;10.23;;;;;;;;;;5118407;27;20603;-51
2023/06/18 04:20:12;;;;;;;15.43;10.75;;;;;;;;;;5118190;27;20520;-49
2023/06/18 04:22:40;;;;;;;15.35;10.70;;;;;;;;;;5118353;27;20205;-48
2023/06/18 04:25:09;;;;;;;14.75;9.98;;;;;;;;;;5118059;27;20579;-47
2023/06/18 04:27:38;;;;;;;22.10;11.52;;;;;;;;;;5118079;27;20231;-50
2023/06/18 04:30:07;;;;;;;16.45;11.68;;;;;;;;;;5136146;27;20667;-48
2023/06/18 04:32:35;;;;;;;15.80;11.18;;;;;;;;;;5117860;27;20194;-48
2023/06/18 04:35:03;;;;;;;17.92;11.10;;;;;;;;;;5117871;27;20197;-48
2023/06/18 04:37:32;;;;;;;16.33;11.65;;;;;;;;;;5117960;27;20236;-49
2023/06/18 04:39:59;;;;;;;19.42;12.48;;;;;;;;;;5118277;27;20205;-49
2023/06/18 04:42:28;;;;;;;15.80;11.18;;;;;;;;;;5118027;27;20284;-48
2023/06/18 04:44:57;;;;;;;20.42;11.60;;;;;;;;;;5117828;27;20198;-49
2023/06/18 04:47:24;;;;;;;17.45;11.88;;;;;;;;;;5135810;27;20588;-49
2023/06/18 04:49:52;;;;;;;20.45;12.57;;;;;;;;;;5117639;27;20198;-52
2023/06/18 04:52:19;;;;;;;22.25;13.25;;;;;;;;;;5117467;27;20545;-48
2023/06/18 04:54:46;;;;;;;20.45;13.43;;;;;;;;;;5135650;27;20570;-48
2023/06/18 04:57:13;;;;;;;20.85;14.30;;;;;;;;;;5136047;27;20201;-48
2023/06/18 04:59:42;;;;;;;23.15;14.73;;;;;;;;;;5117450;27;20201;-48
2023/06/18 05:02:10;;;;;;;21.58;14.23;;;;;;;;;;5117373;27;20630;-48
2023/06/18 05:04:38;;;;;;;22.17;14.13;;;;;;;;;;5135857;27;20296;-48
2023/06/18 05:07:06;;;;;;;18.83;13.63;;;;;;;;;;5135740;27;20221;-48
2023/06/18 05:09:36;;;;;;;24.15;14.88;;;;;;;;;;5117645;27;20204;-52
2023/06/18 05:12:04;;;;;;;20.60;13.70;;;;;;;;;;5117359;27;20205;-48
2023/06/18 05:14:32;;;;;;;18.88;13.88;;;;;;;;;;5117345;27;20201;-48
2023/06/18 05:16:59;;;;;;;21.92;14.45;;;;;;;;;;5117262;27;20213;-48
2023/06/18 05:19:26;;;;;;;20.52;14.48;;;;;;;;;;5117236;27;20280;-50
2023/06/18 05:21:54;;;;;;;24.90;15.27;;;;;;;;;;5116840;27;20664;-48
2023/06/18 05:24:23;;;;;;;20.15;15.05;;;;;;;;;;5116859;27;20614;-50
2023/06/18 05:26:51;;;;;;;23.40;15.88;;;;;;;;;;5117217;27;20197;-49
2023/06/18 05:29:18;;;;;;;20.92;15.02;;;;;;;;;;5116782;27;20201;-50
2023/06/18 05:31:48;;;;;;;23.83;14.93;;;;;;;;;;5114973;27;20281;-49
2023/06/18 05:34:24;;;;;;;22.58;14.43;;;;;;;;;;5106682;27;20201;-50
2023/06/18 05:36:51;;;;;;;21.70;14.80;;;;;;;;;;5116715;27;20205;-51
2023/06/18 05:39:19;;;;;;;21.30;15.02;;;;;;;;;;5117075;27;20628;-53
2023/06/18 05:41:47;;;;;;;22.88;14.32;;;;;;;;;;5116263;27;20194;-49
2023/06/18 05:44:14;;;;;;;22.65;15.13;;;;;;;;;;5116490;27;20198;-48
2023/06/18 05:46:41;;;;;;;23.55;15.40;;;;;;;;;;5116767;27;20204;-49
2023/06/18 05:49:10;;;;;;;21.98;15.07;;;;;;;;;;5114870;27;20586;-50
2023/06/18 05:51:38;;;;;;;22.25;15.50;;;;;;;;;;5106973;28;20267;-50
2023/06/18 05:54:06;;;;;;;23.63;15.38;;;;;;;;;;5116266;27;20278;-49
2023/06/18 05:56:33;;;;;;;23.55;14.68;;;;;;;;;;5134636;27;20651;-49
2023/06/18 05:59:00;;;;;;;21.80;14.48;;;;;;;;;;5134932;27;20216;-48
2023/06/18 06:01:33;;;;;;;22.08;14.55;;;;;;;;;;5116627;27;20197;-48
2023/06/18 06:04:01;;;;;;;24.15;15.98;;;;;;;;;;5116071;28;20285;-55
2023/06/18 06:06:28;;;;;;;24.05;16.50;;;;;;;;;;5145713;27;20280;-48
2023/06/18 06:08:56;;;;;;;22.08;15.57;;;;;;;;;;5098318;27;20570;-50
2023/06/18 06:11:23;;;;;;;22.90;15.68;;;;;;;;;;5115111;28;20224;-49
2023/06/18 06:13:51;;;;;;;27.33;16.52;;;;;;;;;;5114386;28;20235;-49
2023/06/18 06:16:18;;;;;;;25.40;16.17;;;;;;;;;;5103815;28;20217;-48
2023/06/18 06:18:46;;;;;;;27.27;17.55;;;;;;;;;;5102430;28;20703;-54
2023/06/18 06:21:13;;;;;;;25.30;16.98;;;;;;;;;;5102342;28;20594;-49
2023/06/18 06:23:41;;;;;;;28.10;16.83;;;;;;;;;;5113158;28;20261;-51
2023/06/18 06:26:08;;;;;;;25.52;16.52;;;;;;;;;;5095007;27;20217;-52
2023/06/18 06:28:36;;;;;;;27.55;18.33;;;;;;;;;;5111857;28;20615;-50
2023/06/18 06:31:05;;;;;;;25.95;17.42;;;;;;;;;;5114618;28;20315;-50
2023/06/18 06:33:33;;;;;;;24.02;16.88;;;;;;;;;;5114923;28;20229;-49
2023/06/18 06:36:00;;;;;;;27.35;18.45;;;;;;;;;;5132652;27;20229;-49
2023/06/18 06:38:27;;;;;;;27.08;18.58;;;;;;;;;;5115287;28;20217;-51
2023/06/18 06:40:54;;;;;;;25.45;18.60;;;;;;;;;;5114994;27;20221;-49
2023/06/18 06:43:23;;;;;;;29.50;19.48;;;;;;;;;;5115552;28;20225;-48
2023/06/18 06:46:10;;;;;;;30.17;19.17;;;;;;;;;;5115167;28;20217;-51
2023/06/18 06:48:50;;;;;;;25.40;18.77;;;;;;;;;;5133147;28;20225;-53
2023/06/18 06:51:36;;;;;;;28.13;18.60;;;;;;;;;;5113658;27;20740;-50
2023/06/18 06:54:11;;;;;;;26.73;18.30;;;;;;;;;;5149760;27;20217;-50
2023/06/18 06:56:38;;;;;;;28.40;19.50;;;;;;;;;;5118604;27;20209;-48
2023/06/18 06:59:08;;;;;;;26.33;18.02;;;;;;;;;;5118431;27;20217;-48
2023/06/18 07:01:35;;;;;;;27.02;17.45;;;;;;;;;;5123654;27;20246;-49
2023/06/18 07:04:03;;;;;;;26.75;19.25;;;;;;;;;;5098055;28;20272;-48
2023/06/18 07:06:30;;;;;;;28.83;19.40;;;;;;;;;;5134260;27;20260;-51
2023/06/18 07:08:59;;;;;;;27.30;18.42;;;;;;;;;;5136867;27;20237;-49
2023/06/18 07:11:26;;;;;;;29.80;19.30;;;;;;;;;;5136756;27;20687;-49
2023/06/18 07:13:53;;;;;;;29.17;20.60;;;;;;;;;;5136568;27;20228;-51
2023/06/18 07:16:20;;;;;;;28.85;19.63;;;;;;;;;;5136646;27;20248;-48
2023/06/18 07:18:47;;;;;;;28.42;19.85;;;;;;;;;;5128955;27;20218;-48
2023/06/18 07:21:16;;;;;;;25.63;19.17;;;;;;;;;;5116120;28;20232;-49
2023/06/18 07:23:44;;;;;;;26.75;19.05;;;;;;;;;;5116278;28;20218;-48
2023/06/18 07:26:11;;;;;;;25.48;18.38;;;;;;;;;;5116076;28;20752;-48
2023/06/18 07:28:38;;;;;;;30.60;20.33;;;;;;;;;;5116165;28;20255;-48
2023/06/18 07:31:05;;;;;;;29.08;20.35;;;;;;;;;;5121412;27;20219;-50
2023/06/18 07:33:33;;;;;;;27.55;19.95;;;;;;;;;;5135956;27;20220;-48
2023/06/18 07:36:00;;;;;;;26.83;19.52;;;;;;;;;;5133476;27;20316;-49
2023/06/18 07:38:27;;;;;;;28.42;20.08;;;;;;;;;;5136159;27;20217;-50
2023/06/18 07:40:54;;;;;;;28.90;20.48;;;;;;;;;;5135976;27;20700;-53
2023/06/18 07:43:21;;;;;;;30.77;19.90;;;;;;;;;;5135917;27;20236;-49
2023/06/18 07:45:48;;;;;;;25.27;18.48;;;;;;;;;;5136533;27;20217;-49
2023/06/18 07:48:16;;;;;;;27.75;20.52;;;;;;;;;;5136278;27;20237;-50
2023/06/18 07:50:44;;;;;;;27.63;18.95;;;;;;;;;;5127740;27;20226;-49
2023/06/18 07:53:11;;;;;;;24.98;18.50;;;;;;;;;;5115701;28;20226;-48
2023/06/18 07:55:39;;;;;;;24.92;17.95;;;;;;;;;;5115921;28;20229;-50
2023/06/18 07:58:07;;;;;;;25.27;17.80;;;;;;;;;;5115599;28;20275;-49
2023/06/18 08:00:34;;;;;;;24.85;17.85;;;;;;;;;;5115871;28;20225;-48
2023/06/18 08:03:01;;;;;;;25.17;18.55;;;;;;;;;;5115053;28;20279;-49
2023/06/18 08:05:28;;;;;;;25.92;18.60;;;;;;;;;;5114671;28;20234;-53
2023/06/18 08:07:56;;;;;;;26.27;18.60;;;;;;;;;;5115316;28;20230;-50
2023/06/18 08:10:23;;;;;;;23.15;17.52;;;;;;;;;;5115689;28;20218;-49
2023/06/18 08:12:51;;;;;;;27.15;19.02;;;;;;;;;;5115454;28;20263;-48
2023/06/18 08:15:18;;;;;;;25.10;17.80;;;;;;;;;;5115492;28;20696;-49
2023/06/18 08:17:45;;;;;;;25.30;18.40;;;;;;;;;;5115146;28;20230;-52
2023/06/18 08:20:12;;;;;;;26.50;19.00;;;;;;;;;;5118538;27;20213;-48
2023/06/18 08:22:39;;;;;;;24.83;17.95;;;;;;;;;;5135734;27;20221;-50
2023/06/18 08:25:06;;;;;;;26.88;18.90;;;;;;;;;;5135835;27;20300;-48
2023/06/18 08:27:34;;;;;;;28.88;20.02;;;;;;;;;;5117562;27;20240;-50
2023/06/18 08:30:03;;;;;;;29.50;19.80;;;;;;;;;;5135291;27;20248;-48
2023/06/18 08:32:30;;;;;;;29.50;19.83;;;;;;;;;;5135008;27;20214;-49
2023/06/18 08:34:57;;;;;;;27.58;19.63;;;;;;;;;;5134611;27;20221;-49
2023/06/18 08:37:25;;;;;;;28.23;20.02;;;;;;;;;;5135109;27;20711;-50
2023/06/18 08:39:51;;;;;;;25.27;18.65;;;;;;;;;;5134560;27;20222;-50
2023/06/18 08:42:22;;;;;;;25.08;18.30;;;;;;;;;;5134894;27;20209;-48
2023/06/18 08:44:50;;;;;;;29.70;19.80;;;;;;;;;;5134516;27;20310;-50
2023/06/18 08:47:18;;;;;;;24.95;18.70;;;;;;;;;;5132850;27;20224;-48
2023/06/18 08:49:46;;;;;;;24.13;18.38;;;;;;;;;;5134249;27;20579;-48
2023/06/18 08:52:17;;;;;;;27.45;17.98;;;;;;;;;;5116217;27;20218;-48
2023/06/18 08:54:46;;;;;;;24.70;19.25;;;;;;;;;;5134977;27;20221;-49
2023/06/18 08:57:51;;;;;;;23.42;17.65;;;;;;;;;;5116787;27;20217;-50
2023/06/18 09:00:18;;;;;;;25.98;18.55;;;;;;;;;;5114512;27;20264;-48
2023/06/18 09:02:46;;;;;;;25.23;18.15;;;;;;;;;;5134456;27;20221;-54
2023/06/18 09:05:13;;;;;;;22.73;17.00;;;;;;;;;;5133664;27;20236;-47
2023/06/18 09:07:40;;;;;;;34.35;21.17;;;;;;;;;;5117255;27;20225;-48
2023/06/18 09:10:09;;;;;;;30.50;21.83;;;;;;;;;;5116330;27;20224;-48
2023/06/18 09:12:39;;;;;;;29.83;21.17;;;;;;;;;;5134728;27;20715;-48
2023/06/18 09:15:07;;;;;;;37.03;22.55;;;;;;;;;;5115677;28;20270;-48
2023/06/18 09:17:36;;;;;;;31.20;22.90;;;;;;;;;;5116637;27;20225;-50
2023/06/18 09:20:06;;;;;;;27.00;20.27;;;;;;;;;;5133968;27;20221;-51
2023/06/18 09:22:45;;;;;;;27.90;20.15;;;;;;;;;;5134628;27;20221;-49
2023/06/18 09:25:18;;;;;;;23.67;19.27;;;;;;;;;;5134142;27;20852;-49
2023/06/18 09:27:46;;;;;;;22.75;17.75;;;;;;;;;;5134058;27;20216;-49
2023/06/18 09:30:23;;;;;;;22.92;18.38;;;;;;;;;;5134268;27;20245;-49
2023/06/18 09:32:51;;;;;;;22.95;17.25;;;;;;;;;;5133786;27;20266;-50
2023/06/18 09:35:18;;;;;;;25.30;19.08;;;;;;;;;;5134997;27;20201;-52
2023/06/18 09:37:46;;;;;;;21.55;16.83;;;;;;;;;;5134223;27;20254;-52
2023/06/18 09:40:21;;;;;;;22.73;17.42;;;;;;;;;;5134859;27;20578;-53
2023/06/18 09:42:49;;;;;;;22.90;17.30;;;;;;;;;;5133057;27;20693;-49
2023/06/18 09:45:17;;;;;;;21.30;16.23;;;;;;;;;;5133411;27;20202;-50
2023/06/18 09:47:47;;;;;;;23.13;16.00;;;;;;;;;;5134378;27;20201;-48
2023/06/18 09:50:14;;;;;;;20.45;15.63;;;;;;;;;;5134225;27;20619;-48
2023/06/18 09:52:48;;;;;;;19.90;15.40;;;;;;;;;;5116024;27;20213;-49
2023/06/18 09:55:30;;;;;;;18.30;14.00;;;;;;;;;;5116469;27;20201;-48
2023/06/18 09:57:59;;;;;;;20.10;15.68;;;;;;;;;;5116751;27;20255;-48
2023/06/18 10:00:27;;;;;;;19.23;15.18;;;;;;;;;;5134576;27;20647;-48
2023/06/18 10:03:03;;;;;;;20.40;15.25;;;;;;;;;;5134536;27;20536;-48
2023/06/18 10:05:31;;;;;;;17.33;13.32;;;;;;;;;;5135068;27;20687;-48
2023/06/18 10:07:58;;;;;;;20.20;14.50;;;;;;;;;;5116642;28;20197;-49
2023/06/18 10:10:25;;;;;;;21.17;15.32;;;;;;;;;;5116570;27;20194;-49
2023/06/18 10:12:56;;;;;;;19.67;14.23;;;;;;;;;;5134586;27;20209;-48
2023/06/18 10:15:25;;;;;;;20.33;14.10;;;;;;;;;;5116645;28;20232;-48
2023/06/18 10:17:56;;;;;;;17.63;13.88;;;;;;;;;;5134946;28;20228;-48
2023/06/18 10:20:24;;;;;;;18.88;14.60;;;;;;;;;;5134584;28;20208;-48
2023/06/18 10:22:57;;;;;;;19.90;14.90;;;;;;;;;;5134772;28;20220;-49
2023/06/18 10:25:25;;;;;;;18.80;14.32;;;;;;;;;;5134278;28;20200;-47
2023/06/18 10:27:52;;;;;;;20.98;14.65;;;;;;;;;;5119565;27;20601;-48
2023/06/18 10:30:20;;;;;;;19.20;14.73;;;;;;;;;;5138699;27;20217;-47
2023/06/18 10:32:47;;;;;;;19.38;14.02;;;;;;;;;;5138465;27;20201;-49
2023/06/18 10:35:14;;;;;;;19.30;14.82;;;;;;;;;;5120512;27;20246;-49
2023/06/18 10:37:43;;;;;;;20.65;15.88;;;;;;;;;;5120388;27;20204;-47
2023/06/18 10:40:11;;;;;;;18.58;14.70;;;;;;;;;;5120497;27;20208;-48
2023/06/18 10:42:39;;;;;;;16.30;13.27;;;;;;;;;;5120780;27;20239;-48
2023/06/18 10:45:14;;;;;;;18.30;13.85;;;;;;;;;;5138277;27;20205;-46
2023/06/18 10:47:42;;;;;;;17.83;13.65;;;;;;;;;;5138266;27;20530;-49
2023/06/18 10:50:12;;;;;;;35.40;15.75;;;;;;;;;;5138459;27;20672;-47
2023/06/18 10:52:44;;;;;;;19.10;15.43;;;;;;;;;;5138015;27;20258;-47
2023/06/18 10:55:20;;;;;;;18.38;13.90;;;;;;;;;;5138550;27;20245;-48
2023/06/18 10:57:51;;;;;;;15.57;12.60;;;;;;;;;;5138224;27;20568;-49
2023/06/18 11:00:28;;;;;;;14.75;11.98;;;;;;;;;;5137930;27;20203;-48
2023/06/18 11:03:13;;;;;;;15.55;13.07;;;;;;;;;;5132483;27;20224;-48
2023/06/18 11:05:46;;;;;;;16.20;12.23;;;;;;;;;;5138538;27;20236;-48
2023/06/18 11:08:15;;;;;;;13.10;11.18;;;;;;;;;;5136440;27;20221;-48
2023/06/18 11:10:47;;;;;;;15.70;12.45;;;;;;;;;;5136448;27;20327;-50
2023/06/18 11:13:16;;;;;;;15.38;11.73;;;;;;;;;;5139290;27;20538;-49
2023/06/18 11:16:00;;;;;;;17.45;12.43;;;;;;;;;;5130143;27;20222;-48
2023/06/18 11:18:28;;;;;;;14.07;11.52;;;;;;;;;;5128242;27;20209;-49
2023/06/18 11:20:56;;;;;;;15.15;11.90;;;;;;;;;;5108132;27;20221;-53
2023/06/18 11:23:24;;;;;;;16.52;12.90;;;;;;;;;;5134357;27;20217;-47
2023/06/18 11:25:52;;;;;;;14.98;12.18;;;;;;;;;;5136051;27;20240;-46
2023/06/18 11:28:24;;;;;;;16.45;12.25;;;;;;;;;;5136637;27;20213;-45
2023/06/18 11:30:54;;;;;;;16.67;13.48;;;;;;;;;;5135706;27;20246;-46
2023/06/18 11:33:27;;;;;;;17.48;12.68;;;;;;;;;;5117743;27;20270;-48
2023/06/18 11:36:06;;;;;;;20.25;14.07;;;;;;;;;;5135390;27;20240;-45
2023/06/18 11:38:33;;;;;;;20.33;14.35;;;;;;;;;;5140962;27;20212;-46
2023/06/18 11:41:00;;;;;;;18.35;13.95;;;;;;;;;;5146313;27;20214;-44
2023/06/18 11:43:46;;;;;;;21.08;15.50;;;;;;;;;;5141180;27;20209;-45
2023/06/18 11:46:27;;;;;;;19.42;15.32;;;;;;;;;;5139901;27;20217;-45
2023/06/18 11:48:55;;;;;;;20.88;16.00;;;;;;;;;;5137388;27;20225;-44
2023/06/18 11:51:24;;;;;;;19.10;14.43;;;;;;;;;;5135940;27;20315;-44
2023/06/18 11:53:56;;;;;;;16.25;12.82;;;;;;;;;;5135744;27;20217;-45
2023/06/18 11:56:25;;;;;;;19.52;13.82;;;;;;;;;;5121754;27;20304;-45
2023/06/18 11:58:54;;;;;;;16.77;11.98;;;;;;;;;;5133277;27;20229;-44
2023/06/18 12:01:30;;;;;;;15.05;12.20;;;;;;;;;;5115089;28;20226;-43
2023/06/18 12:04:02;;;;;;;17.45;13.07;;;;;;;;;;5115480;28;20294;-44
2023/06/18 12:06:30;;;;;;;17.23;12.85;;;;;;;;;;5117001;27;20226;-44
2023/06/18 12:09:08;;;;;;;18.00;14.07;;;;;;;;;;5115278;28;20238;-45
2023/06/18 12:12:16;;;;;;;17.27;13.18;;;;;;;;;;5114643;28;20278;-44
2023/06/18 12:15:17;;;;;;;19.15;14.30;;;;;;;;;;5115076;28;20230;-45
2023/06/18 12:17:50;;;;;;;17.00;13.32;;;;;;;;;;5114587;28;20615;-46
2023/06/18 12:20:27;;;;;;;17.30;13.23;;;;;;;;;;5120674;27;20282;-45
2023/06/18 12:22:59;;;;;;;19.33;14.02;;;;;;;;;;5132736;27;20243;-44
2023/06/18 12:25:29;;;;;;;19.52;14.57;;;;;;;;;;5133661;27;20217;-47
2023/06/18 12:27:57;;;;;;;19.88;14.07;;;;;;;;;;5134457;27;20303;-47
2023/06/18 12:30:29;;;;;;;17.83;13.38;;;;;;;;;;5131473;27;20273;-45
2023/06/18 12:33:01;;;;;;;19.35;13.57;;;;;;;;;;5135132;27;20266;-46
2023/06/18 12:35:28;;;;;;;16.15;12.48;;;;;;;;;;5134933;27;20702;-46
2023/06/18 12:38:00;;;;;;;19.10;13.18;;;;;;;;;;5134992;27;20213;-47
2023/06/18 12:40:27;;;;;;;17.70;12.88;;;;;;;;;;5134335;27;20231;-48
2023/06/18 12:42:54;;;;;;;16.08;12.73;;;;;;;;;;5139800;27;20217;-47
2023/06/18 12:45:25;;;;;;;20.10;13.73;;;;;;;;;;5143445;27;20235;-46
2023/06/18 12:47:58;;;;;;;18.85;13.68;;;;;;;;;;5141240;27;20303;-47
2023/06/18 12:50:25;;;;;;;16.83;12.82;;;;;;;;;;5142353;27;20220;-47
2023/06/18 12:52:52;;;;;;;17.50;13.27;;;;;;;;;;5136926;27;20258;-47
2023/06/18 12:55:22;;;;;;;16.17;13.07;;;;;;;;;;5135141;27;20221;-47
2023/06/18 12:57:49;;;;;;;15.48;12.45;;;;;;;;;;5135219;27;20213;-44
2023/06/18 13:00:19;;;;;;;17.33;12.65;;;;;;;;;;5131959;27;20221;-44
2023/06/18 13:02:47;;;;;;;16.27;12.30;;;;;;;;;;5133607;27;20221;-43
2023/06/18 13:05:15;;;;;;;18.83;13.48;;;;;;;;;;5133886;27;20237;-44
2023/06/18 13:07:53;;;;;;;20.38;14.05;;;;;;;;;;5133779;27;20213;-44
2023/06/18 13:10:20;;;;;;;15.82;12.60;;;;;;;;;;5134585;27;20323;-44
2023/06/18 13:12:47;;;;;;;19.25;12.60;;;;;;;;;;5134074;27;20687;-46
2023/06/18 13:15:15;;;;;;;19.98;14.82;;;;;;;;;;5133937;27;20229;-44
2023/06/18 13:17:42;;;;;;;17.42;13.30;;;;;;;;;;5134116;27;20254;-44
2023/06/18 13:20:12;;;;;;;16.58;13.05;;;;;;;;;;5116299;27;20243;-44
2023/06/18 13:22:41;;;;;;;15.95;12.30;;;;;;;;;;5133284;27;20221;-47
2023/06/18 13:25:09;;;;;;;17.10;13.23;;;;;;;;;;5132815;27;20221;-44
2023/06/18 13:27:36;;;;;;;19.60;13.30;;;;;;;;;;5132991;27;20687;-44
2023/06/18 13:30:04;;;;;;;17.40;12.48;;;;;;;;;;5133668;27;20237;-44
2023/06/18 13:32:31;;;;;;;19.95;13.77;;;;;;;;;;5091058;28;20226;-44
2023/06/18 13:34:58;;;;;;;20.58;13.38;;;;;;;;;;5090999;28;20705;-44
2023/06/18 13:37:25;;;;;;;18.88;13.43;;;;;;;;;;5091409;28;20309;-44
2023/06/18 13:39:53;;;;;;;17.20;12.88;;;;;;;;;;5090484;28;20219;-44
2023/06/18 13:42:21;;;;;;;23.33;14.23;;;;;;;;;;5089203;28;20238;-44
2023/06/18 13:44:49;;;;;;;16.88;13.07;;;;;;;;;;5090167;28;20222;-45
2023/06/18 13:47:16;;;;;;;16.85;12.18;;;;;;;;;;5083282;28;20253;-44
2023/06/18 13:49:44;;;;;;;16.90;13.20;;;;;;;;;;5070327;28;20270;-45
2023/06/18 13:52:12;;;;;;;18.50;13.85;;;;;;;;;;5070925;28;20721;-44
2023/06/18 13:54:40;;;;;;;18.00;13.30;;;;;;;;;;5070659;28;20223;-44
2023/06/18 13:57:07;;;;;;;16.73;13.02;;;;;;;;;;5078853;28;20234;-44
2023/06/18 13:59:34;;;;;;;18.65;13.88;;;;;;;;;;5089909;28;20241;-44
2023/06/18 14:02:03;;;;;;;20.77;13.15;;;;;;;;;;5089777;28;20223;-44
2023/06/18 14:04:35;;;;;;;16.13;12.75;;;;;;;;;;5110478;27;20232;-44
2023/06/18 14:07:03;;;;;;;17.80;13.45;;;;;;;;;;5133859;27;20650;-44
2023/06/18 14:09:30;;;;;;;18.10;14.13;;;;;;;;;;5133713;27;20229;-45
2023/06/18 14:11:57;;;;;;;16.10;12.43;;;;;;;;;;5133854;28;20647;-45
2023/06/18 14:14:25;;;;;;;17.88;12.85;;;;;;;;;;5133379;27;20580;-45
2023/06/18 14:16:52;;;;;;;18.58;13.23;;;;;;;;;;5133663;28;20274;-45
2023/06/18 14:19:19;;;;;;;14.30;11.50;;;;;;;;;;5133196;28;20688;-43
2023/06/18 14:21:46;;;;;;;15.95;12.65;;;;;;;;;;5133471;28;20225;-44
2023/06/18 14:24:14;;;;;;;16.88;13.68;;;;;;;;;;5125124;28;20238;-45
2023/06/18 14:26:41;;;;;;;17.33;12.55;;;;;;;;;;5119130;28;20228;-45
2023/06/18 14:29:09;;;;;;;18.20;13.07;;;;;;;;;;5133360;28;20253;-45
2023/06/18 14:31:36;;;;;;;18.15;12.63;;;;;;;;;;5133477;28;20228;-43